sensor_id;sensor_type;location;lat;lon;timestamp;pressure;altitude;pressure_sealevel;temperature;humidity
55590;BME280;41452;42.780;23.116;2022-08-21T00:01:14;93855.84;;;18.37;98.06
55590;BME280;41452;42.780;23.116;2022-08-21T00:03:41;93867.75;;;18.40;98.01
55590;BME280;41452;42.780;23.116;2022-08-21T00:06:07;93818.63;;;18.04;97.99
55590;BME280;41452;42.780;23.116;2022-08-21T00:08:32;93831.75;;;18.15;98.08
55590;BME280;41452;42.780;23.116;2022-08-21T00:10:58;93816.97;;;18.09;98.23
55590;BME280;41452;42.780;23.116;2022-08-21T00:13:23;93759.91;;;17.68;98.04
55590;BME280;41452;42.780;23.116;2022-08-21T00:15:49;93868.72;;;18.30;98.06
55590;BME280;41452;42.780;23.116;2022-08-21T00:18:17;93784.16;;;17.80;98.11
55590;BME280;41452;42.780;23.116;2022-08-21T00:20:44;93857.81;;;18.32;98.18
55590;BME280;41452;42.780;23.116;2022-08-21T00:23:10;93842.44;;;18.29;98.13
55590;BME280;41452;42.780;23.116;2022-08-21T00:25:36;93825.28;;;18.21;97.93
55590;BME280;41452;42.780;23.116;2022-08-21T00:28:02;93780.78;;;17.94;97.58
55590;BME280;41452;42.780;23.116;2022-08-21T00:30:28;93786.78;;;17.85;97.50
55590;BME280;41452;42.780;23.116;2022-08-21T00:32:55;93803.06;;;17.98;97.40
55590;BME280;41452;42.780;23.116;2022-08-21T00:35:27;93817.19;;;18.12;97.47
55590;BME280;41452;42.780;23.116;2022-08-21T00:37:53;93810.34;;;18.06;97.81
55590;BME280;41452;42.780;23.116;2022-08-21T00:40:25;93813.22;;;18.10;98.15
55590;BME280;41452;42.780;23.116;2022-08-21T00:42:51;93814.53;;;18.12;98.03
55590;BME280;41452;42.780;23.116;2022-08-21T00:45:17;93750.22;;;17.77;98.07
55590;BME280;41452;42.780;23.116;2022-08-21T00:47:42;93759.38;;;17.85;98.02
55590;BME280;41452;42.780;23.116;2022-08-21T00:50:09;93838.59;;;18.35;97.99
55590;BME280;41452;42.780;23.116;2022-08-21T00:52:37;93839.91;;;18.37;97.69
55590;BME280;41452;42.780;23.116;2022-08-21T00:55:05;93840.19;;;18.36;97.88
55590;BME280;41452;42.780;23.116;2022-08-21T00:57:38;93826.47;;;18.29;97.02
55590;BME280;41452;42.780;23.116;2022-08-21T01:00:08;93845.22;;;18.37;97.09
55590;BME280;41452;42.780;23.116;2022-08-21T01:02:34;93774.28;;;17.86;96.42
55590;BME280;41452;42.780;23.116;2022-08-21T01:04:59;93824.13;;;18.27;96.08
55590;BME280;41452;42.780;23.116;2022-08-21T01:07:25;93809.56;;;18.24;95.74
55590;BME280;41452;42.780;23.116;2022-08-21T01:09:51;93801.25;;;18.12;95.45
55590;BME280;41452;42.780;23.116;2022-08-21T01:12:17;93789.69;;;18.03;95.23
55590;BME280;41452;42.780;23.116;2022-08-21T01:14:43;93778.72;;;17.91;95.12
55590;BME280;41452;42.780;23.116;2022-08-21T01:17:11;93791.06;;;18.00;94.36
55590;BME280;41452;42.780;23.116;2022-08-21T01:19:38;93773.41;;;17.91;93.87
55590;BME280;41452;42.780;23.116;2022-08-21T01:22:03;93741.53;;;17.72;93.71
55590;BME280;41452;42.780;23.116;2022-08-21T01:24:29;93823.91;;;18.23;94.52
55590;BME280;41452;42.780;23.116;2022-08-21T01:26:57;93820.25;;;18.19;94.62
55590;BME280;41452;42.780;23.116;2022-08-21T01:31:58;93820.34;;;18.14;95.39
55590;BME280;41452;42.780;23.116;2022-08-21T01:34:23;93766.84;;;17.83;95.37
55590;BME280;41452;42.780;23.116;2022-08-21T01:36:49;93763.91;;;17.84;95.57
55590;BME280;41452;42.780;23.116;2022-08-21T01:39:14;93806.03;;;18.10;95.88
55590;BME280;41452;42.780;23.116;2022-08-21T01:41:40;93776.19;;;17.80;95.62
55590;BME280;41452;42.780;23.116;2022-08-21T01:44:06;93818.91;;;18.03;95.96
55590;BME280;41452;42.780;23.116;2022-08-21T01:46:31;93809.22;;;17.93;96.09
55590;BME280;41452;42.780;23.116;2022-08-21T01:48:57;93757.06;;;17.64;95.97
55590;BME280;41452;42.780;23.116;2022-08-21T01:51:23;93791.78;;;17.87;96.21
55590;BME280;41452;42.780;23.116;2022-08-21T01:53:48;93778.44;;;17.73;96.66
55590;BME280;41452;42.780;23.116;2022-08-21T01:56:15;93775.25;;;17.71;96.81
55590;BME280;41452;42.780;23.116;2022-08-21T01:58:43;93720.94;;;17.44;96.87
55590;BME280;41452;42.780;23.116;2022-08-21T02:01:10;93733.16;;;17.45;96.28
55590;BME280;41452;42.780;23.116;2022-08-21T02:03:37;93804.69;;;17.94;96.17
55590;BME280;41452;42.780;23.116;2022-08-21T02:06:06;93801.53;;;17.92;96.31
55590;BME280;41452;42.780;23.116;2022-08-21T02:08:32;93755.19;;;17.65;95.76
55590;BME280;41452;42.780;23.116;2022-08-21T02:10:58;93765.22;;;17.68;95.79
55590;BME280;41452;42.780;23.116;2022-08-21T02:13:24;93775.78;;;17.73;95.83
55590;BME280;41452;42.780;23.116;2022-08-21T02:15:49;93792.41;;;17.79;95.88
55590;BME280;41452;42.780;23.116;2022-08-21T02:18:15;93799.75;;;17.87;95.77
55590;BME280;41452;42.780;23.116;2022-08-21T02:20:46;93797.94;;;17.82;95.39
55590;BME280;41452;42.780;23.116;2022-08-21T02:23:12;93806.63;;;17.69;95.19
55590;BME280;41452;42.780;23.116;2022-08-21T02:25:39;93762.44;;;17.40;95.14
55590;BME280;41452;42.780;23.116;2022-08-21T02:28:12;93798.72;;;17.64;95.13
55590;BME280;41452;42.780;23.116;2022-08-21T02:30:41;93808.00;;;17.66;94.91
55590;BME280;41452;42.780;23.116;2022-08-21T02:33:08;93794.66;;;17.53;94.37
55590;BME280;41452;42.780;23.116;2022-08-21T02:35:35;93813.38;;;17.61;94.59
55590;BME280;41452;42.780;23.116;2022-08-21T02:38:04;93815.25;;;17.61;94.42
55590;BME280;41452;42.780;23.116;2022-08-21T02:40:33;93802.75;;;17.42;94.29
55590;BME280;41452;42.780;23.116;2022-08-21T02:43:00;93776.53;;;17.17;94.30
55590;BME280;41452;42.780;23.116;2022-08-21T02:45:26;93812.06;;;17.40;94.49
55590;BME280;41452;42.780;23.116;2022-08-21T02:47:56;93721.28;;;16.81;94.30
55590;BME280;41452;42.780;23.116;2022-08-21T02:50:34;93754.38;;;17.07;93.95
55590;BME280;41452;42.780;23.116;2022-08-21T02:53:00;93796.84;;;17.26;94.02
55590;BME280;41452;42.780;23.116;2022-08-21T02:55:28;93819.31;;;17.34;94.23
55590;BME280;41452;42.780;23.116;2022-08-21T02:57:55;93781.41;;;17.09;93.28
55590;BME280;41452;42.780;23.116;2022-08-21T03:00:23;93786.16;;;17.13;92.84
55590;BME280;41452;42.780;23.116;2022-08-21T03:02:49;93827.00;;;17.36;92.62
55590;BME280;41452;42.780;23.116;2022-08-21T03:05:15;93830.44;;;17.36;92.74
55590;BME280;41452;42.780;23.116;2022-08-21T03:07:42;93830.44;;;17.36;92.65
55590;BME280;41452;42.780;23.116;2022-08-21T03:10:09;93841.06;;;17.36;92.30
55590;BME280;41452;42.780;23.116;2022-08-21T03:12:35;93786.28;;;17.02;92.29
55590;BME280;41452;42.780;23.116;2022-08-21T03:15:02;93832.22;;;17.22;92.14
55590;BME280;41452;42.780;23.116;2022-08-21T03:17:29;93726.28;;;16.58;91.71
55590;BME280;41452;42.780;23.116;2022-08-21T03:19:54;93800.25;;;17.08;91.76
55590;BME280;41452;42.780;23.116;2022-08-21T03:22:19;93816.97;;;17.08;91.68
55590;BME280;41452;42.780;23.116;2022-08-21T03:24:45;93741.25;;;16.49;91.60
55590;BME280;41452;42.780;23.116;2022-08-21T03:27:11;93826.34;;;17.01;91.87
55590;BME280;41452;42.780;23.116;2022-08-21T03:29:38;93790.09;;;16.67;92.11
55590;BME280;41452;42.780;23.116;2022-08-21T03:32:03;93838.38;;;16.93;92.55
55590;BME280;41452;42.780;23.116;2022-08-21T03:34:29;93737.59;;;16.40;92.74
55590;BME280;41452;42.780;23.116;2022-08-21T03:36:54;93802.19;;;16.73;92.87
55590;BME280;41452;42.780;23.116;2022-08-21T03:39:20;93810.38;;;16.77;92.74
55590;BME280;41452;42.780;23.116;2022-08-21T03:41:45;93759.84;;;16.44;93.18
55590;BME280;41452;42.780;23.116;2022-08-21T03:44:12;93844.19;;;16.95;93.09
55590;BME280;41452;42.780;23.116;2022-08-21T03:46:38;93837.28;;;16.94;91.82
55590;BME280;41452;42.780;23.116;2022-08-21T03:49:04;93789.63;;;16.60;92.54
55590;BME280;41452;42.780;23.116;2022-08-21T03:51:29;93796.78;;;16.59;92.98
55590;BME280;41452;42.780;23.116;2022-08-21T03:53:57;93767.06;;;16.38;93.28
55590;BME280;41452;42.780;23.116;2022-08-21T03:56:23;93821.13;;;16.66;93.68
55590;BME280;41452;42.780;23.116;2022-08-21T03:58:49;93819.25;;;16.67;93.94
55590;BME280;41452;42.780;23.116;2022-08-21T04:01:14;93834.06;;;16.68;94.03
55590;BME280;41452;42.780;23.116;2022-08-21T04:03:40;93821.34;;;16.70;95.05
55590;BME280;41452;42.780;23.116;2022-08-21T04:06:06;93822.44;;;16.64;95.25
55590;BME280;41452;42.780;23.116;2022-08-21T04:08:32;93828.44;;;16.75;95.74
55590;BME280;41452;42.780;23.116;2022-08-21T04:10:58;93809.44;;;16.67;96.47
55590;BME280;41452;42.780;23.116;2022-08-21T04:13:24;93853.41;;;16.98;96.53
55590;BME280;41452;42.780;23.116;2022-08-21T04:15:51;93842.91;;;16.87;97.08
55590;BME280;41452;42.780;23.116;2022-08-21T04:18:17;93831.28;;;16.83;97.77
55590;BME280;41452;42.780;23.116;2022-08-21T04:20:43;93845.91;;;17.05;97.87
55590;BME280;41452;42.780;23.116;2022-08-21T04:23:10;93798.94;;;16.81;97.84
55590;BME280;41452;42.780;23.116;2022-08-21T04:25:35;93839.78;;;17.09;97.94
55590;BME280;41452;42.780;23.116;2022-08-21T04:28:01;93791.38;;;16.69;97.94
55590;BME280;41452;42.780;23.116;2022-08-21T04:30:27;93785.56;;;16.67;98.16
55590;BME280;41452;42.780;23.116;2022-08-21T04:32:52;93816.56;;;16.96;98.21
55590;BME280;41452;42.780;23.116;2022-08-21T04:35:21;93858.75;;;17.22;98.16
55590;BME280;41452;42.780;23.116;2022-08-21T04:37:47;93809.75;;;16.90;98.15
55590;BME280;41452;42.780;23.116;2022-08-21T04:40:15;93811.03;;;16.92;98.40
55590;BME280;41452;42.780;23.116;2022-08-21T04:42:47;93837.13;;;17.09;98.92
55590;BME280;41452;42.780;23.116;2022-08-21T04:45:17;93852.28;;;17.28;99.07
55590;BME280;41452;42.780;23.116;2022-08-21T04:47:46;93801.59;;;16.81;98.78
55590;BME280;41452;42.780;23.116;2022-08-21T04:50:12;93774.34;;;16.76;99.19
55590;BME280;41452;42.780;23.116;2022-08-21T04:52:37;93805.19;;;16.96;99.49
55590;BME280;41452;42.780;23.116;2022-08-21T04:55:03;93820.13;;;17.10;99.87
55590;BME280;41452;42.780;23.116;2022-08-21T04:57:29;93802.91;;;17.08;100.00
55590;BME280;41452;42.780;23.116;2022-08-21T04:59:54;93840.00;;;17.13;100.00
55590;BME280;41452;42.780;23.116;2022-08-21T05:02:20;93833.44;;;17.05;100.00
55590;BME280;41452;42.780;23.116;2022-08-21T05:04:49;93858.75;;;17.22;100.00
55590;BME280;41452;42.780;23.116;2022-08-21T05:07:19;93819.16;;;17.01;100.00
55590;BME280;41452;42.780;23.116;2022-08-21T05:09:45;93809.69;;;16.95;100.00
55590;BME280;41452;42.780;23.116;2022-08-21T05:12:11;93802.41;;;17.06;100.00
55590;BME280;41452;42.780;23.116;2022-08-21T05:14:37;93813.56;;;17.27;100.00
55590;BME280;41452;42.780;23.116;2022-08-21T05:17:02;93845.88;;;17.53;100.00
55590;BME280;41452;42.780;23.116;2022-08-21T05:19:29;93774.50;;;17.08;100.00
55590;BME280;41452;42.780;23.116;2022-08-21T05:21:55;93847.59;;;17.63;100.00
55590;BME280;41452;42.780;23.116;2022-08-21T05:24:20;93762.13;;;17.04;100.00
55590;BME280;41452;42.780;23.116;2022-08-21T05:26:46;93853.34;;;17.70;100.00
55590;BME280;41452;42.780;23.116;2022-08-21T05:29:12;93826.00;;;17.51;100.00
55590;BME280;41452;42.780;23.116;2022-08-21T05:31:38;93813.34;;;17.42;100.00
55590;BME280;41452;42.780;23.116;2022-08-21T05:34:05;93828.09;;;17.54;100.00
55590;BME280;41452;42.780;23.116;2022-08-21T05:36:31;93811.13;;;17.49;100.00
55590;BME280;41452;42.780;23.116;2022-08-21T05:38:56;93806.03;;;17.53;100.00
55590;BME280;41452;42.780;23.116;2022-08-21T05:41:21;93843.38;;;17.81;100.00
55590;BME280;41452;42.780;23.116;2022-08-21T05:43:47;93830.94;;;17.76;100.00
55590;BME280;41452;42.780;23.116;2022-08-21T05:46:13;93797.66;;;17.65;100.00
55590;BME280;41452;42.780;23.116;2022-08-21T05:48:38;93811.88;;;17.74;100.00
55590;BME280;41452;42.780;23.116;2022-08-21T05:51:07;93766.06;;;17.44;100.00
55590;BME280;41452;42.780;23.116;2022-08-21T05:53:33;93781.59;;;17.56;100.00
55590;BME280;41452;42.780;23.116;2022-08-21T05:55:58;93818.69;;;17.80;100.00
55590;BME280;41452;42.780;23.116;2022-08-21T05:58:24;93820.47;;;17.85;100.00
55590;BME280;41452;42.780;23.116;2022-08-21T06:00:50;93802.75;;;17.80;100.00
55590;BME280;41452;42.780;23.116;2022-08-21T06:03:22;93845.88;;;18.10;100.00
55590;BME280;41452;42.780;23.116;2022-08-21T06:05:48;93832.72;;;18.05;100.00
55590;BME280;41452;42.780;23.116;2022-08-21T06:08:15;93756.63;;;17.57;100.00
55590;BME280;41452;42.780;23.116;2022-08-21T06:10:41;93857.19;;;18.21;100.00
55590;BME280;41452;42.780;23.116;2022-08-21T06:13:07;93798.41;;;17.90;100.00
55590;BME280;41452;42.780;23.116;2022-08-21T06:15:32;93837.06;;;18.15;100.00
55590;BME280;41452;42.780;23.116;2022-08-21T06:17:57;93827.28;;;18.10;100.00
55590;BME280;41452;42.780;23.116;2022-08-21T06:20:23;93820.13;;;18.11;100.00
55590;BME280;41452;42.780;23.116;2022-08-21T06:22:48;93759.56;;;17.75;100.00
55590;BME280;41452;42.780;23.116;2022-08-21T06:25:14;93760.41;;;17.70;100.00
55590;BME280;41452;42.780;23.116;2022-08-21T06:27:39;93789.03;;;17.92;100.00
55590;BME280;41452;42.780;23.116;2022-08-21T06:30:05;93812.81;;;18.02;100.00
55590;BME280;41452;42.780;23.116;2022-08-21T06:32:31;93807.50;;;18.02;100.00
55590;BME280;41452;42.780;23.116;2022-08-21T06:34:56;93812.94;;;18.11;100.00
55590;BME280;41452;42.780;23.116;2022-08-21T06:37:22;93785.03;;;17.95;100.00
55590;BME280;41452;42.780;23.116;2022-08-21T06:39:47;93764.97;;;17.83;100.00
55590;BME280;41452;42.780;23.116;2022-08-21T06:42:17;93844.72;;;18.35;100.00
55590;BME280;41452;42.780;23.116;2022-08-21T06:44:43;93845.22;;;18.37;100.00
55590;BME280;41452;42.780;23.116;2022-08-21T06:47:09;93776.78;;;17.96;100.00
55590;BME280;41452;42.780;23.116;2022-08-21T06:49:35;93838.16;;;18.47;100.00
55590;BME280;41452;42.780;23.116;2022-08-21T06:52:00;93791.69;;;18.11;100.00
55590;BME280;41452;42.780;23.116;2022-08-21T06:54:26;93815.66;;;18.25;100.00
55590;BME280;41452;42.780;23.116;2022-08-21T06:56:51;93853.31;;;18.46;100.00
55590;BME280;41452;42.780;23.116;2022-08-21T06:59:17;93799.09;;;18.14;100.00
55590;BME280;41452;42.780;23.116;2022-08-21T07:01:43;93748.13;;;17.74;100.00
55590;BME280;41452;42.780;23.116;2022-08-21T07:04:08;93780.22;;;17.97;100.00
55590;BME280;41452;42.780;23.116;2022-08-21T07:06:34;93777.06;;;17.95;100.00
55590;BME280;41452;42.780;23.116;2022-08-21T07:08:59;93828.56;;;18.32;100.00
55590;BME280;41452;42.780;23.116;2022-08-21T07:11:26;93854.72;;;18.57;100.00
55590;BME280;41452;42.780;23.116;2022-08-21T07:13:52;93823.66;;;18.39;100.00
55590;BME280;41452;42.780;23.116;2022-08-21T07:16:20;93784.50;;;18.12;100.00
55590;BME280;41452;42.780;23.116;2022-08-21T07:18:46;93863.47;;;18.58;100.00
55590;BME280;41452;42.780;23.116;2022-08-21T07:21:12;93776.91;;;18.05;100.00
55590;BME280;41452;42.780;23.116;2022-08-21T07:23:40;93861.03;;;18.61;100.00
55590;BME280;41452;42.780;23.116;2022-08-21T07:26:09;93858.44;;;18.56;100.00
55590;BME280;41452;42.780;23.116;2022-08-21T07:28:35;93781.63;;;18.08;100.00
55590;BME280;41452;42.780;23.116;2022-08-21T07:31:01;93839.41;;;18.49;100.00
55590;BME280;41452;42.780;23.116;2022-08-21T07:33:28;93786.22;;;18.21;100.00
55590;BME280;41452;42.780;23.116;2022-08-21T07:48:30;93839.28;;;19.70;98.67
55590;BME280;41452;42.780;23.116;2022-08-21T07:50:55;93834.06;;;19.65;95.94
55590;BME280;41452;42.780;23.116;2022-08-21T07:53:21;93839.63;;;19.55;96.42
55590;BME280;41452;42.780;23.116;2022-08-21T07:55:46;93843.34;;;19.54;96.57
55590;BME280;41452;42.780;23.116;2022-08-21T07:58:12;93820.69;;;19.43;96.16
55590;BME280;41452;42.780;23.116;2022-08-21T08:00:39;93841.31;;;19.51;95.79
55590;BME280;41452;42.780;23.116;2022-08-21T08:03:04;93827.00;;;19.47;96.15
55590;BME280;41452;42.780;23.116;2022-08-21T08:05:31;93831.13;;;19.53;98.79
55590;BME280;41452;42.780;23.116;2022-08-21T08:07:57;93753.69;;;19.13;98.19
55590;BME280;41452;42.780;23.116;2022-08-21T08:10:23;93788.56;;;19.39;97.65
55590;BME280;41452;42.780;23.116;2022-08-21T08:12:49;93762.72;;;19.26;98.24
55590;BME280;41452;42.780;23.116;2022-08-21T08:15:18;93809.84;;;19.53;98.00
55590;BME280;41452;42.780;23.116;2022-08-21T08:17:45;93807.75;;;19.50;97.65
55590;BME280;41452;42.780;23.116;2022-08-21T08:20:12;93798.50;;;19.47;96.60
55590;BME280;41452;42.780;23.116;2022-08-21T08:22:39;93804.31;;;19.49;96.57
55590;BME280;41452;42.780;23.116;2022-08-21T08:25:10;93709.75;;;19.02;96.13
55590;BME280;41452;42.780;23.116;2022-08-21T08:27:40;93761.16;;;19.38;96.89
55590;BME280;41452;42.780;23.116;2022-08-21T08:30:08;93670.16;;;18.86;96.13
55590;BME280;41452;42.780;23.116;2022-08-21T08:32:36;93605.16;;;18.51;96.35
55590;BME280;41452;42.780;23.116;2022-08-21T08:35:05;93624.16;;;18.72;95.73
55590;BME280;41452;42.780;23.116;2022-08-21T08:37:32;93700.13;;;19.28;96.06
55590;BME280;41452;42.780;23.116;2022-08-21T08:39:58;93646.50;;;18.98;94.93
55590;BME280;41452;42.780;23.116;2022-08-21T08:42:34;93815.38;;;20.16;93.91
55590;BME280;41452;42.780;23.116;2022-08-21T08:45:13;93657.59;;;19.14;93.56
55590;BME280;41452;42.780;23.116;2022-08-21T08:47:46;93538.63;;;18.42;92.69
55590;BME280;41452;42.780;23.116;2022-08-21T08:50:24;93500.28;;;18.20;91.62
55590;BME280;41452;42.780;23.116;2022-08-21T08:52:59;93683.19;;;19.47;92.71
55590;BME280;41452;42.780;23.116;2022-08-21T08:55:40;93811.13;;;20.37;93.06
55590;BME280;41452;42.780;23.116;2022-08-21T08:58:28;93825.31;;;20.46;92.03
55590;BME280;41452;42.780;23.116;2022-08-21T09:01:01;93669.88;;;19.47;91.48
55590;BME280;41452;42.780;23.116;2022-08-21T09:03:39;93831.00;;;20.54;91.92
55590;BME280;41452;42.780;23.116;2022-08-21T09:20:23;93503.50;;;18.82;89.28
55590;BME280;41452;42.780;23.116;2022-08-21T09:25:43;93547.44;;;19.24;88.68
55590;BME280;41452;42.780;23.116;2022-08-21T09:28:11;93462.56;;;18.91;91.51
55590;BME280;41452;42.780;23.116;2022-08-21T09:30:40;93697.31;;;20.55;91.13
55590;BME280;41452;42.780;23.116;2022-08-21T09:33:07;93515.94;;;19.49;89.83
55590;BME280;41452;42.780;23.116;2022-08-21T09:35:33;93656.22;;;20.47;87.07
55590;BME280;41452;42.780;23.116;2022-08-21T09:38:06;93767.31;;;21.41;88.98
55590;BME280;41452;42.780;23.116;2022-08-21T09:40:46;93740.59;;;21.32;87.88
55590;BME280;41452;42.780;23.116;2022-08-21T09:43:32;93682.59;;;21.15;86.09
55590;BME280;41452;42.780;23.116;2022-08-21T09:46:28;93468.16;;;19.84;86.04
55590;BME280;41452;42.780;23.116;2022-08-21T09:48:56;93784.31;;;21.97;87.37
55590;BME280;41452;42.780;23.116;2022-08-21T09:51:26;93521.00;;;20.57;87.37
55590;BME280;41452;42.780;23.116;2022-08-21T09:54:10;93492.25;;;20.54;81.84
55590;BME280;41452;42.780;23.116;2022-08-21T10:00:28;93757.72;;;22.45;81.51
55590;BME280;41452;42.780;23.116;2022-08-21T10:03:29;93748.72;;;22.58;81.86
55590;BME280;41452;42.780;23.116;2022-08-21T10:06:20;93612.06;;;21.69;82.56
55590;BME280;41452;42.780;23.116;2022-08-21T10:09:07;93433.78;;;20.66;79.31
55590;BME280;41452;42.780;23.116;2022-08-21T10:12:21;93395.94;;;20.55;80.12
55590;BME280;41452;42.780;23.116;2022-08-21T10:15:28;93656.38;;;22.43;79.79
55590;BME280;41452;42.780;23.116;2022-08-21T10:23:45;93734.94;;;23.15;78.03
55590;BME280;41452;42.780;23.116;2022-08-21T10:34:37;93722.59;;;23.23;74.32
55590;BME280;41452;42.780;23.116;2022-08-21T10:46:05;93712.34;;;23.67;75.43
55590;BME280;41452;42.780;23.116;2022-08-21T10:48:49;93708.66;;;23.81;74.85
55590;BME280;41452;42.780;23.116;2022-08-21T11:00:30;93534.97;;;23.20;72.57
55590;BME280;41452;42.780;23.116;2022-08-21T11:03:12;93406.38;;;22.40;72.99
55590;BME280;41452;42.780;23.116;2022-08-21T11:05:47;93417.56;;;22.55;70.21
55590;BME280;41452;42.780;23.116;2022-08-21T11:08:21;93513.50;;;23.41;69.35
55590;BME280;41452;42.780;23.116;2022-08-21T11:10:57;93548.72;;;23.64;67.80
55590;BME280;41452;42.780;23.116;2022-08-21T11:37:01;93419.69;;;23.86;64.80
55590;BME280;41452;42.780;23.116;2022-08-21T11:40:24;93436.63;;;23.78;62.98
55590;BME280;41452;42.780;23.116;2022-08-21T11:45:57;93448.47;;;23.77;66.78
55590;BME280;41452;42.780;23.116;2022-08-21T11:51:16;93479.88;;;24.01;66.99
55590;BME280;41452;42.780;23.116;2022-08-21T11:53:53;93553.28;;;24.46;67.15
55590;BME280;41452;42.780;23.116;2022-08-21T11:56:53;93550.84;;;24.53;66.46
55590;BME280;41452;42.780;23.116;2022-08-21T11:59:36;93606.28;;;24.86;67.27
55590;BME280;41452;42.780;23.116;2022-08-21T12:02:13;93572.50;;;24.73;65.21
55590;BME280;41452;42.780;23.116;2022-08-21T12:04:53;93457.97;;;23.87;64.98
55590;BME280;41452;42.780;23.116;2022-08-21T12:07:39;93655.16;;;25.16;64.74
55590;BME280;41452;42.780;23.116;2022-08-21T12:10:12;93644.19;;;25.09;66.77
55590;BME280;41452;42.780;23.116;2022-08-21T12:12:40;93640.03;;;25.12;65.63
55590;BME280;41452;42.780;23.116;2022-08-21T12:18:23;93640.94;;;25.16;65.79
55590;BME280;41452;42.780;23.116;2022-08-21T12:23:57;93644.16;;;25.21;63.80
55590;BME280;41452;42.780;23.116;2022-08-21T12:26:26;93645.38;;;25.24;68.15
55590;BME280;41452;42.780;23.116;2022-08-21T12:29:14;93618.09;;;25.10;66.05
55590;BME280;41452;42.780;23.116;2022-08-21T12:31:56;93625.06;;;25.11;62.30
55590;BME280;41452;42.780;23.116;2022-08-21T12:34:36;93646.50;;;25.23;61.84
55590;BME280;41452;42.780;23.116;2022-08-21T12:39:43;93642.59;;;25.33;64.73
55590;BME280;41452;42.780;23.116;2022-08-21T12:42:23;93637.31;;;25.24;64.46
55590;BME280;41452;42.780;23.116;2022-08-21T12:45:03;93570.75;;;24.64;66.61
55590;BME280;41452;42.780;23.116;2022-08-21T12:47:54;93628.53;;;24.99;66.23
55590;BME280;41452;42.780;23.116;2022-08-21T12:50:31;93634.25;;;24.85;66.82
55590;BME280;41452;42.780;23.116;2022-08-21T12:53:05;93627.56;;;24.79;68.06
55590;BME280;41452;42.780;23.116;2022-08-21T12:55:33;93633.03;;;24.82;68.74
55590;BME280;41452;42.780;23.116;2022-08-21T12:57:59;93610.56;;;24.62;67.85
55590;BME280;41452;42.780;23.116;2022-08-21T13:00:27;93634.25;;;24.73;68.25
55590;BME280;41452;42.780;23.116;2022-08-21T13:02:53;93641.00;;;24.66;69.83
55590;BME280;41452;42.780;23.116;2022-08-21T13:05:39;93636.72;;;24.65;67.94
55590;BME280;41452;42.780;23.116;2022-08-21T13:08:07;93643.44;;;24.59;67.75
55590;BME280;41452;42.780;23.116;2022-08-21T13:10:34;93634.50;;;24.55;67.80
55590;BME280;41452;42.780;23.116;2022-08-21T13:13:19;93635.81;;;24.49;68.17
55590;BME280;41452;42.780;23.116;2022-08-21T13:15:45;93622.59;;;24.32;67.15
55590;BME280;41452;42.780;23.116;2022-08-21T13:18:20;93639.16;;;24.46;67.06
55590;BME280;41452;42.780;23.116;2022-08-21T13:20:47;93632.00;;;24.38;67.40
55590;BME280;41452;42.780;23.116;2022-08-21T13:23:31;93640.06;;;24.38;67.04
55590;BME280;41452;42.780;23.116;2022-08-21T13:25:57;93632.44;;;24.40;66.33
55590;BME280;41452;42.780;23.116;2022-08-21T13:28:23;93593.50;;;24.09;65.24
55590;BME280;41452;42.780;23.116;2022-08-21T13:30:58;93614.00;;;24.26;65.01
55590;BME280;41452;42.780;23.116;2022-08-21T13:33:26;93602.94;;;24.27;64.71
55590;BME280;41452;42.780;23.116;2022-08-21T13:38:25;93617.00;;;24.24;64.65
55590;BME280;41452;42.780;23.116;2022-08-21T13:43:35;93609.97;;;24.07;64.76
55590;BME280;41452;42.780;23.116;2022-08-21T13:46:06;93608.72;;;24.05;65.52
55590;BME280;41452;42.780;23.116;2022-08-21T14:05:29;93627.88;;;24.53;67.44
55590;BME280;41452;42.780;23.116;2022-08-21T14:10:53;93608.84;;;24.21;73.22
55590;BME280;41452;42.780;23.116;2022-08-21T14:13:44;93623.72;;;24.18;74.58
55590;BME280;41452;42.780;23.116;2022-08-21T14:16:23;93615.97;;;24.04;76.10
55590;BME280;41452;42.780;23.116;2022-08-21T14:19:05;93623.66;;;23.94;77.29
55590;BME280;41452;42.780;23.116;2022-08-21T14:21:35;93601.09;;;23.61;78.57
55590;BME280;41452;42.780;23.116;2022-08-21T14:26:35;93624.50;;;23.52;80.89
55590;BME280;41452;42.780;23.116;2022-08-21T14:29:07;93622.38;;;23.45;82.66
55590;BME280;41452;42.780;23.116;2022-08-21T14:31:33;93616.81;;;23.29;83.08
55590;BME280;41452;42.780;23.116;2022-08-21T14:34:00;93646.09;;;23.34;82.09
55590;BME280;41452;42.780;23.116;2022-08-21T14:36:26;93640.34;;;23.24;80.75
55590;BME280;41452;42.780;23.116;2022-08-21T14:38:52;93642.84;;;23.08;80.36
55590;BME280;41452;42.780;23.116;2022-08-21T14:41:28;93605.53;;;22.73;79.58
55590;BME280;41452;42.780;23.116;2022-08-21T14:43:55;93636.28;;;22.88;79.51
55590;BME280;41452;42.780;23.116;2022-08-21T14:46:26;93553.84;;;22.30;80.19
55590;BME280;41452;42.780;23.116;2022-08-21T14:48:52;93616.88;;;22.70;80.79
55590;BME280;41452;42.780;23.116;2022-08-21T14:51:18;93599.31;;;22.60;81.62
55590;BME280;41452;42.780;23.116;2022-08-21T14:53:43;93567.03;;;22.35;82.40
55590;BME280;41452;42.780;23.116;2022-08-21T14:56:09;93565.91;;;22.36;83.03
55590;BME280;41452;42.780;23.116;2022-08-21T14:58:45;93585.63;;;22.62;84.79
55590;BME280;41452;42.780;23.116;2022-08-21T15:01:12;93533.69;;;22.33;84.88
55590;BME280;41452;42.780;23.116;2022-08-21T15:03:39;93571.44;;;22.61;84.81
55590;BME280;41452;42.780;23.116;2022-08-21T15:06:05;93548.41;;;22.48;84.65
55590;BME280;41452;42.780;23.116;2022-08-21T15:08:31;93483.19;;;22.01;83.12
55590;BME280;41452;42.780;23.116;2022-08-21T15:10:58;93542.84;;;22.32;82.86
55590;BME280;41452;42.780;23.116;2022-08-21T15:13:25;93550.34;;;22.38;83.67